首页
METAR-TAF:

METAR-TAF

机场 :

Muskoka, 安大略省, 加拿大

纬度: 44-58N, 经度: 079-18W, 海拔: 280米

当前天气观测

该预报发布于1小时和14分钟前的08:00 UTC
静风
温度 -19°C
湿度 84%
气压 1024 hPa
能見度: 14.5公里
天空无云

METAR: CYQA 130800Z AUTO 00000KT 9SM CLR M19/M21 A3024 RMK SLP266

时间: 04:14 (09:14 UTC)

预报

该预报发布于13小时和36分钟前的19:38 UTC
预报有效从12日的 20点(UTC)到 13日的 03点(UTC)
风速12节,风向西北,有时为22节阵风
能見度: 10公里
多云层高于3000英尺
短暂存在
从 12日的 20点(UTC)到 12日的 23点(UTC)
能見度: 6.4公里
多云层高于2000英尺
小阵雪
成为
从 12日的 23点(UTC)到 13日的 01点(UTC)
风速10节,风向西北

TAF: CYQA 121938Z 1220/1303 32012G22KT P6SM BKN030 TEMPO 1220/1223 4SM -SHSN BKN020 BECMG 1223/1301 32010KT RMK FCST BASED ON AUTO OBS. NXT FCST WILL BE ISSUED AT 131245Z

超过4000个机场的气象观测和天气预报(METAR&TAF报告)。

可查询的气象台以黄色和红色小点在地图上表示。

将鼠标移到小点上方,可查看气象台名称。

然后点击查看天气观测和预报。

如需切换地图:点击带黑十字的绿色按钮放大地图;点击带横线的绿色按钮缩小地图;或者点击绿色箭头查看邻近地区的地图。


METAR-TAF: